Time;durP1;ratioP1;P1;durP2;ratioP2;P2;SDS_P1;SDS_P2;PMS_P1;PMS_P2;Temp;Humidity;BMP_temperature;BMP_pressure;BME280_temperature;BME280_humidity;BME280_pressure;Samples;Min_cycle;Max_cycle;Signal;HPM_P1;HPM_P2
2024/01/01 00:00:36;;;;;;;3.40;2.07;;;;;;;;;;4979527;28;20572;-89
2024/01/01 00:03:02;;;;;;;5.37;2.10;;;;;;;;;;4960004;28;20224;-86
2024/01/01 00:05:27;;;;;;;4.27;2.20;;;;;;;;;;4976438;28;21304;-88
2024/01/01 00:07:53;;;;;;;4.37;2.23;;;;;;;;;;4980059;28;20281;-87
2024/01/01 00:10:19;;;;;;;3.73;2.37;;;;;;;;;;4960760;28;20299;-85
2024/01/01 00:12:46;;;;;;;6.50;2.20;;;;;;;;;;4994364;28;20243;-87
2024/01/01 00:15:12;;;;;;;4.47;2.10;;;;;;;;;;4961319;28;20214;-86
2024/01/01 00:17:38;;;;;;;4.23;2.20;;;;;;;;;;4992811;28;20228;-86
2024/01/01 00:20:05;;;;;;;5.23;2.30;;;;;;;;;;4976666;28;20241;-86
2024/01/01 00:22:31;;;;;;;3.93;1.97;;;;;;;;;;4964706;28;20221;-85
2024/01/01 00:24:57;;;;;;;4.73;2.10;;;;;;;;;;4980429;28;20225;-87
2024/01/01 00:27:25;;;;;;;5.23;2.20;;;;;;;;;;4979868;28;20311;-86
2024/01/01 00:29:53;;;;;;;2.90;2.00;;;;;;;;;;4978648;28;20245;-85
2024/01/01 00:32:21;;;;;;;3.90;2.30;;;;;;;;;;4979472;28;20224;-83
2024/01/01 00:34:47;;;;;;;5.20;2.40;;;;;;;;;;4981515;28;20218;-85
2024/01/01 00:37:15;;;;;;;5.10;2.60;;;;;;;;;;4963380;28;20236;-85
2024/01/01 00:39:40;;;;;;;8.93;2.77;;;;;;;;;;4989614;28;20233;-84
2024/01/01 00:42:06;;;;;;;6.60;2.50;;;;;;;;;;4963056;28;20213;-84
2024/01/01 00:44:34;;;;;;;6.60;2.83;;;;;;;;;;4973921;28;20232;-86
2024/01/01 00:47:04;;;;;;;5.30;2.83;;;;;;;;;;4968989;28;20217;-84
2024/01/01 00:49:29;;;;;;;6.60;3.10;;;;;;;;;;4998564;28;20714;-85
2024/01/01 00:51:55;;;;;;;5.97;3.00;;;;;;;;;;4966464;28;20222;-86
2024/01/01 00:54:28;;;;;;;3.47;2.73;;;;;;;;;;4974880;28;20229;-84
2024/01/01 00:56:54;;;;;;;4.73;3.07;;;;;;;;;;4970687;28;20214;-86
2024/01/01 00:59:21;;;;;;;4.43;3.20;;;;;;;;;;4998854;28;20223;-85
2024/01/01 01:01:46;;;;;;;5.70;3.57;;;;;;;;;;4987263;28;20225;-86
2024/01/01 01:04:15;;;;;;;6.20;3.47;;;;;;;;;;4986302;28;20282;-85
2024/01/01 01:06:45;;;;;;;5.33;3.70;;;;;;;;;;4991097;28;20229;-85
2024/01/01 01:09:12;;;;;;;4.40;4.00;;;;;;;;;;4957818;28;20229;-86
2024/01/01 01:11:40;;;;;;;5.93;4.13;;;;;;;;;;4986448;28;20287;-85
2024/01/01 01:14:07;;;;;;;6.30;4.40;;;;;;;;;;4961534;28;20221;-85
2024/01/01 01:16:35;;;;;;;6.70;4.17;;;;;;;;;;4978702;28;20260;-85
2024/01/01 01:19:02;;;;;;;4.73;3.70;;;;;;;;;;4979771;28;20226;-85
2024/01/01 01:21:28;;;;;;;5.50;4.30;;;;;;;;;;4965590;28;20235;-86
2024/01/01 01:23:55;;;;;;;6.83;4.30;;;;;;;;;;4963096;28;20656;-84
2024/01/01 01:26:23;;;;;;;6.60;4.10;;;;;;;;;;4967844;28;20291;-85
2024/01/01 01:28:48;;;;;;;5.83;4.23;;;;;;;;;;4985744;28;20225;-86
2024/01/01 01:31:14;;;;;;;7.53;4.30;;;;;;;;;;4965778;28;20581;-84
2024/01/01 01:33:42;;;;;;;6.07;4.43;;;;;;;;;;4995106;28;20325;-84
2024/01/01 01:36:10;;;;;;;5.87;4.57;;;;;;;;;;4969248;28;20274;-86
2024/01/01 01:38:38;;;;;;;6.13;4.63;;;;;;;;;;4986039;28;20285;-86
2024/01/01 01:41:04;;;;;;;8.70;4.90;;;;;;;;;;4952401;28;20632;-84
2024/01/01 01:43:29;;;;;;;5.77;5.00;;;;;;;;;;4982805;28;20241;-86
2024/01/01 01:45:55;;;;;;;7.63;5.30;;;;;;;;;;4986918;28;20217;-85
2024/01/01 01:48:21;;;;;;;8.07;4.97;;;;;;;;;;4974787;28;20247;-85
2024/01/01 01:50:53;;;;;;;7.87;5.70;;;;;;;;;;4987607;28;20284;-86
2024/01/01 01:53:23;;;;;;;6.10;5.23;;;;;;;;;;4950929;28;20237;-85
2024/01/01 01:55:53;;;;;;;7.30;4.97;;;;;;;;;;4982640;28;20218;-86
2024/01/01 01:58:19;;;;;;;10.57;5.23;;;;;;;;;;4966671;28;20252;-84
2024/01/01 02:00:47;;;;;;;6.50;5.07;;;;;;;;;;4986053;28;20225;-85
2024/01/01 02:03:20;;;;;;;8.13;4.90;;;;;;;;;;4965550;28;20221;-86
2024/01/01 02:05:48;;;;;;;9.50;6.00;;;;;;;;;;4967200;28;20264;-86
2024/01/01 02:08:16;;;;;;;8.70;5.20;;;;;;;;;;4966573;28;20233;-86
2024/01/01 02:10:42;;;;;;;7.77;5.00;;;;;;;;;;4974165;28;20226;-85
2024/01/01 02:13:24;;;;;;;6.57;5.43;;;;;;;;;;4965452;28;20219;-85
2024/01/01 02:15:54;;;;;;;9.53;5.73;;;;;;;;;;4980267;28;20246;-85
2024/01/01 02:18:20;;;;;;;8.40;6.00;;;;;;;;;;4978210;28;20772;-86
2024/01/01 02:20:46;;;;;;;7.97;5.23;;;;;;;;;;4960233;28;20244;-84
2024/01/01 02:23:18;;;;;;;6.87;5.50;;;;;;;;;;4958698;28;20228;-85
2024/01/01 02:25:44;;;;;;;6.73;5.37;;;;;;;;;;4965800;28;20244;-87
2024/01/01 02:28:10;;;;;;;10.03;6.10;;;;;;;;;;4956434;28;20213;-85
2024/01/01 02:30:36;;;;;;;6.60;5.83;;;;;;;;;;4974252;28;20607;-86
2024/01/01 02:33:11;;;;;;;6.73;5.73;;;;;;;;;;4979631;28;20221;-85
2024/01/01 02:35:39;;;;;;;10.27;6.87;;;;;;;;;;4972720;28;20249;-85
2024/01/01 02:38:07;;;;;;;9.60;7.13;;;;;;;;;;4970601;28;20238;-86
2024/01/01 02:40:36;;;;;;;8.27;7.43;;;;;;;;;;5022743;28;20239;-84
2024/01/01 02:43:07;;;;;;;11.03;9.77;;;;;;;;;;5001835;28;20237;-85
2024/01/01 02:45:33;;;;;;;10.77;9.60;;;;;;;;;;4971037;28;20221;-85
2024/01/01 02:47:59;;;;;;;14.63;9.13;;;;;;;;;;4987888;28;20244;-86
2024/01/01 02:50:30;;;;;;;11.83;9.70;;;;;;;;;;4981245;28;20301;-84
2024/01/01 02:52:56;;;;;;;11.37;10.07;;;;;;;;;;4959658;28;20229;-86
2024/01/01 02:55:21;;;;;;;13.53;9.80;;;;;;;;;;4990402;28;20236;-86
2024/01/01 02:57:47;;;;;;;11.67;10.43;;;;;;;;;;4986860;28;20317;-86
2024/01/01 03:00:14;;;;;;;14.03;10.10;;;;;;;;;;4985518;28;20240;-85
2024/01/01 03:02:42;;;;;;;10.93;9.70;;;;;;;;;;4991279;28;20217;-85
2024/01/01 03:05:10;;;;;;;11.90;9.50;;;;;;;;;;4990963;28;20226;-85
2024/01/01 03:07:36;;;;;;;10.53;9.47;;;;;;;;;;5005206;28;20277;-84
2024/01/01 03:10:02;;;;;;;10.70;9.60;;;;;;;;;;4967731;28;20305;-89
2024/01/01 03:12:28;;;;;;;10.03;8.83;;;;;;;;;;4976800;28;20277;-87
2024/01/01 03:14:54;;;;;;;9.07;6.93;;;;;;;;;;4977383;28;20232;-85
2024/01/01 03:17:22;;;;;;;13.07;7.67;;;;;;;;;;4963012;28;20698;-88
2024/01/01 03:19:47;;;;;;;11.47;7.53;;;;;;;;;;4976722;28;20331;-88
2024/01/01 03:22:13;;;;;;;8.83;7.33;;;;;;;;;;4994280;28;20762;-86
2024/01/01 03:24:41;;;;;;;7.90;6.90;;;;;;;;;;4992368;28;20237;-87
2024/01/01 03:27:06;;;;;;;6.87;6.17;;;;;;;;;;4960374;28;20249;-88
2024/01/01 03:29:32;;;;;;;8.47;6.63;;;;;;;;;;4944741;28;20220;-85
2024/01/01 03:31:57;;;;;;;7.37;6.57;;;;;;;;;;4962549;28;20594;-87
2024/01/01 03:34:23;;;;;;;7.43;6.60;;;;;;;;;;4993362;28;21012;-88
2024/01/01 03:36:54;;;;;;;7.33;5.80;;;;;;;;;;4992548;28;20232;-89
2024/01/01 03:39:24;;;;;;;8.97;6.43;;;;;;;;;;4984813;28;20308;-86
2024/01/01 03:41:49;;;;;;;7.93;6.37;;;;;;;;;;4943354;28;20260;-88
2024/01/01 03:44:17;;;;;;;7.23;6.53;;;;;;;;;;4976301;28;20315;-89
2024/01/01 03:46:45;;;;;;;6.40;5.77;;;;;;;;;;4965622;28;20268;-89
2024/01/01 03:49:13;;;;;;;6.57;5.97;;;;;;;;;;4996392;28;20221;-87
2024/01/01 03:51:46;;;;;;;9.30;6.13;;;;;;;;;;4966906;28;20268;-88
2024/01/01 03:54:14;;;;;;;7.50;5.50;;;;;;;;;;4965350;28;20233;-88
2024/01/01 03:56:40;;;;;;;6.90;5.40;;;;;;;;;;4948876;28;20221;-89
2024/01/01 04:02:52;;;;;;;7.30;5.07;;;;;;;;;;4997323;28;20291;-86
2024/01/01 04:05:18;;;;;;;9.07;5.17;;;;;;;;;;4990718;28;20226;-86
2024/01/01 04:07:48;;;;;;;6.13;4.90;;;;;;;;;;4953084;28;20247;-87
2024/01/01 04:10:14;;;;;;;6.70;5.00;;;;;;;;;;4983371;28;20201;-88
2024/01/01 04:12:42;;;;;;;6.87;4.60;;;;;;;;;;4980465;28;20289;-88
2024/01/01 04:15:08;;;;;;;6.97;4.80;;;;;;;;;;4978614;28;20225;-86
2024/01/01 04:17:43;;;;;;;6.93;4.87;;;;;;;;;;4976319;28;20225;-83
2024/01/01 04:20:10;;;;;;;6.73;4.50;;;;;;;;;;4993138;28;20218;-86
2024/01/01 04:22:40;;;;;;;8.90;5.33;;;;;;;;;;4986618;28;20224;-86
2024/01/01 04:25:09;;;;;;;6.30;4.33;;;;;;;;;;4950627;28;20226;-85
2024/01/01 04:27:34;;;;;;;5.90;4.17;;;;;;;;;;4976976;28;21066;-85
2024/01/01 04:30:04;;;;;;;6.13;4.20;;;;;;;;;;4959945;28;20222;-85
2024/01/01 04:32:32;;;;;;;8.20;4.70;;;;;;;;;;4992289;28;20756;-86
2024/01/01 04:35:06;;;;;;;5.53;4.40;;;;;;;;;;4964368;28;20252;-87
2024/01/01 04:37:34;;;;;;;6.53;4.27;;;;;;;;;;4961506;28;20233;-86
2024/01/01 04:40:02;;;;;;;5.97;4.17;;;;;;;;;;4955044;28;20316;-85
2024/01/01 04:42:30;;;;;;;5.47;4.33;;;;;;;;;;4994557;28;20213;-86
2024/01/01 04:44:58;;;;;;;4.50;3.97;;;;;;;;;;4988849;28;20210;-86
2024/01/01 04:47:26;;;;;;;4.40;3.90;;;;;;;;;;4950439;28;20217;-86
2024/01/01 04:49:54;;;;;;;5.97;3.87;;;;;;;;;;4975618;28;20229;-87
2024/01/01 04:52:21;;;;;;;5.27;4.03;;;;;;;;;;4979865;28;20269;-87
2024/01/01 04:54:48;;;;;;;6.57;4.23;;;;;;;;;;4936747;28;20324;-81
2024/01/01 04:57:16;;;;;;;4.87;3.57;;;;;;;;;;4959450;28;20265;-86
2024/01/01 04:59:44;;;;;;;4.47;3.40;;;;;;;;;;4975354;28;20233;-86
2024/01/01 05:02:14;;;;;;;8.83;3.97;;;;;;;;;;4944364;28;20682;-86
2024/01/01 05:04:40;;;;;;;6.70;4.20;;;;;;;;;;4979265;28;20232;-85
2024/01/01 05:07:08;;;;;;;7.90;3.83;;;;;;;;;;4976615;28;20269;-86
2024/01/01 05:09:35;;;;;;;7.67;4.13;;;;;;;;;;4977226;28;20240;-86
2024/01/01 05:12:01;;;;;;;7.87;3.70;;;;;;;;;;4958413;28;20489;-86
2024/01/01 05:14:26;;;;;;;5.23;3.27;;;;;;;;;;4977428;28;20237;-88
2024/01/01 05:16:54;;;;;;;9.47;3.90;;;;;;;;;;4978713;28;20264;-86
2024/01/01 05:19:20;;;;;;;3.73;3.17;;;;;;;;;;4956270;28;20233;-85
2024/01/01 05:21:48;;;;;;;3.97;3.57;;;;;;;;;;4977073;28;20225;-84
2024/01/01 05:24:13;;;;;;;6.03;3.27;;;;;;;;;;4958130;28;20273;-84
2024/01/01 05:26:39;;;;;;;4.40;3.20;;;;;;;;;;4959695;28;20233;-86
2024/01/01 05:29:07;;;;;;;6.13;3.10;;;;;;;;;;4959422;28;20221;-88
2024/01/01 05:31:34;;;;;;;12.00;3.80;;;;;;;;;;4975665;28;20236;-88
2024/01/01 05:34:00;;;;;;;4.43;3.03;;;;;;;;;;4944131;28;20233;-85
2024/01/01 05:36:26;;;;;;;6.43;3.60;;;;;;;;;;4974004;28;20847;-87
2024/01/01 05:38:51;;;;;;;5.50;3.30;;;;;;;;;;4953840;28;20714;-84
2024/01/01 05:41:19;;;;;;;4.40;3.50;;;;;;;;;;4992026;28;20213;-83
2024/01/01 05:43:44;;;;;;;5.27;3.33;;;;;;;;;;4978039;28;20332;-86
2024/01/01 05:46:10;;;;;;;6.40;3.60;;;;;;;;;;4973058;28;20221;-84
2024/01/01 05:48:35;;;;;;;8.43;4.00;;;;;;;;;;4992027;28;20248;-87
2024/01/01 05:51:03;;;;;;;4.53;3.20;;;;;;;;;;4974643;28;20650;-84
2024/01/01 05:53:29;;;;;;;6.50;2.97;;;;;;;;;;4973271;28;20233;-86
2024/01/01 05:55:54;;;;;;;9.70;3.43;;;;;;;;;;4973298;28;20232;-87
2024/01/01 05:58:20;;;;;;;5.23;2.90;;;;;;;;;;4974669;28;20773;-86
2024/01/01 06:00:45;;;;;;;5.13;3.60;;;;;;;;;;4960525;28;20264;-84
2024/01/01 06:03:13;;;;;;;7.40;3.53;;;;;;;;;;4948844;28;20241;-85
2024/01/01 06:05:46;;;;;;;5.20;3.37;;;;;;;;;;5002478;28;20221;-82
2024/01/01 06:08:12;;;;;;;10.47;3.30;;;;;;;;;;5001426;28;20237;-85
2024/01/01 06:10:44;;;;;;;7.97;3.63;;;;;;;;;;4959005;28;20237;-86
2024/01/01 06:13:14;;;;;;;7.40;3.03;;;;;;;;;;4955509;28;20275;-84
2024/01/01 06:15:42;;;;;;;6.03;3.30;;;;;;;;;;4976359;28;20319;-85
2024/01/01 06:18:07;;;;;;;6.73;3.47;;;;;;;;;;4967322;28;20229;-88
2024/01/01 06:20:33;;;;;;;4.97;3.17;;;;;;;;;;4990773;28;20224;-85
2024/01/01 06:22:59;;;;;;;8.17;3.50;;;;;;;;;;4957966;28;20688;-86
2024/01/01 06:25:24;;;;;;;4.37;3.30;;;;;;;;;;4939321;28;20229;-88
2024/01/01 06:27:50;;;;;;;6.13;3.37;;;;;;;;;;4953992;28;20260;-87
2024/01/01 06:30:18;;;;;;;4.97;3.07;;;;;;;;;;4956617;28;20210;-86
2024/01/01 06:32:51;;;;;;;4.80;3.10;;;;;;;;;;4959434;28;20305;-86
2024/01/01 06:35:17;;;;;;;4.13;3.30;;;;;;;;;;4978489;28;20359;-82
2024/01/01 06:37:44;;;;;;;6.80;3.50;;;;;;;;;;4944143;28;20982;-87
2024/01/01 06:40:12;;;;;;;5.37;3.00;;;;;;;;;;4936732;28;20214;-88
2024/01/01 06:42:38;;;;;;;3.80;3.20;;;;;;;;;;4977753;28;20241;-86
2024/01/01 06:45:06;;;;;;;8.07;3.43;;;;;;;;;;4974561;28;20225;-87
2024/01/01 06:47:32;;;;;;;6.93;3.63;;;;;;;;;;4973359;28;20239;-86
2024/01/01 06:49:58;;;;;;;5.90;3.20;;;;;;;;;;4959821;28;20225;-87
2024/01/01 06:52:23;;;;;;;7.33;3.40;;;;;;;;;;4973219;28;20225;-87
2024/01/01 06:54:51;;;;;;;4.90;3.23;;;;;;;;;;4975908;28;20323;-87
2024/01/01 06:57:21;;;;;;;4.10;2.87;;;;;;;;;;4973649;28;20572;-85
2024/01/01 06:59:47;;;;;;;4.37;2.77;;;;;;;;;;4977413;28;20217;-88
2024/01/01 07:02:14;;;;;;;4.90;2.57;;;;;;;;;;4975266;28;20232;-88
2024/01/01 07:04:42;;;;;;;5.53;3.00;;;;;;;;;;4944027;28;20250;-85
2024/01/01 07:07:10;;;;;;;6.30;2.93;;;;;;;;;;4981480;28;20214;-87
2024/01/01 07:09:35;;;;;;;5.70;2.80;;;;;;;;;;4986479;28;20284;-86
2024/01/01 07:12:17;;;;;;;6.67;2.73;;;;;;;;;;4977704;28;20221;-86
2024/01/01 07:14:43;;;;;;;7.70;2.93;;;;;;;;;;4989875;28;20291;-87
2024/01/01 07:17:09;;;;;;;3.13;2.33;;;;;;;;;;4975369;28;20225;-86
2024/01/01 07:19:35;;;;;;;5.10;2.90;;;;;;;;;;4975041;28;20240;-84
2024/01/01 07:22:01;;;;;;;4.23;2.77;;;;;;;;;;4982301;28;20221;-87
2024/01/01 07:24:29;;;;;;;5.53;2.90;;;;;;;;;;4970336;28;20226;-87
2024/01/01 07:26:57;;;;;;;7.03;2.70;;;;;;;;;;4973576;28;20314;-87
2024/01/01 07:29:25;;;;;;;4.67;2.40;;;;;;;;;;4944935;28;20229;-88
2024/01/01 07:31:53;;;;;;;10.40;3.00;;;;;;;;;;4962914;28;20240;-87
2024/01/01 07:34:19;;;;;;;5.40;2.73;;;;;;;;;;4975373;28;20221;-87
2024/01/01 07:36:50;;;;;;;4.70;2.80;;;;;;;;;;4990213;28;20315;-85
2024/01/01 07:39:23;;;;;;;6.33;2.50;;;;;;;;;;4957488;28;20252;-86
2024/01/01 07:41:49;;;;;;;4.23;2.10;;;;;;;;;;4960363;28;20881;-89
2024/01/01 07:44:14;;;;;;;3.00;2.20;;;;;;;;;;4958413;28;20214;-83
2024/01/01 07:46:41;;;;;;;3.33;2.00;;;;;;;;;;4960492;28;20317;-84
2024/01/01 07:49:13;;;;;;;4.27;1.90;;;;;;;;;;4959068;28;20264;-88
2024/01/01 07:51:38;;;;;;;7.73;2.00;;;;;;;;;;4959522;28;20260;-86
2024/01/01 07:54:06;;;;;;;5.27;2.07;;;;;;;;;;4956228;28;20229;-87
2024/01/01 07:56:32;;;;;;;5.97;2.20;;;;;;;;;;4976238;28;20690;-87
2024/01/01 07:58:57;;;;;;;3.10;1.87;;;;;;;;;;4973835;28;20223;-86
2024/01/01 08:01:24;;;;;;;6.60;2.20;;;;;;;;;;4976356;28;20704;-87
2024/01/01 08:03:52;;;;;;;4.10;1.80;;;;;;;;;;4958259;28;20750;-87
2024/01/01 08:06:22;;;;;;;3.27;1.93;;;;;;;;;;4984575;28;20705;-86
2024/01/01 08:08:48;;;;;;;3.90;1.70;;;;;;;;;;4960096;28;20238;-87
2024/01/01 08:11:14;;;;;;;3.77;2.00;;;;;;;;;;4970737;28;20239;-88
2024/01/01 08:13:39;;;;;;;6.53;2.03;;;;;;;;;;4985219;28;20229;-85
2024/01/01 08:16:07;;;;;;;5.83;1.87;;;;;;;;;;4937490;28;20276;-86
2024/01/01 08:18:35;;;;;;;2.43;1.50;;;;;;;;;;4960372;28;20234;-86
2024/01/01 08:21:00;;;;;;;4.33;1.90;;;;;;;;;;4974930;28;20233;-87
2024/01/01 08:23:26;;;;;;;4.13;1.93;;;;;;;;;;4974887;28;20221;-87
2024/01/01 08:25:53;;;;;;;5.37;2.10;;;;;;;;;;4987654;28;20234;-88
2024/01/01 08:28:21;;;;;;;4.30;2.10;;;;;;;;;;4974745;28;21330;-87
2024/01/01 08:30:48;;;;;;;3.83;2.00;;;;;;;;;;4960772;28;20227;-87
2024/01/01 08:33:16;;;;;;;4.70;1.90;;;;;;;;;;4952485;28;20841;-88
2024/01/01 08:35:42;;;;;;;3.23;1.70;;;;;;;;;;4963790;28;20699;-86
2024/01/01 08:38:08;;;;;;;7.33;2.30;;;;;;;;;;4975535;28;20233;-87
2024/01/01 08:40:36;;;;;;;10.13;1.87;;;;;;;;;;4976694;28;20225;-87
2024/01/01 08:43:04;;;;;;;7.77;2.10;;;;;;;;;;4946650;28;20237;-84
2024/01/01 08:45:32;;;;;;;4.67;2.07;;;;;;;;;;4973305;28;20237;-85
2024/01/01 08:47:58;;;;;;;5.33;1.87;;;;;;;;;;4978136;28;20217;-86
2024/01/01 08:50:26;;;;;;;4.90;2.20;;;;;;;;;;4993442;28;20278;-85
2024/01/01 08:52:54;;;;;;;5.07;1.90;;;;;;;;;;4977335;28;20321;-86
2024/01/01 08:55:20;;;;;;;7.47;1.90;;;;;;;;;;4960306;28;20238;-84
2024/01/01 08:57:48;;;;;;;5.97;2.00;;;;;;;;;;4965111;28;20280;-85
2024/01/01 09:00:17;;;;;;;4.03;1.97;;;;;;;;;;4948285;28;20220;-85
2024/01/01 09:02:43;;;;;;;3.50;1.73;;;;;;;;;;4996857;28;20233;-87
2024/01/01 09:05:08;;;;;;;3.60;1.90;;;;;;;;;;4963827;28;20236;-86
2024/01/01 09:07:35;;;;;;;7.07;2.17;;;;;;;;;;4978192;28;20241;-83
2024/01/01 09:10:04;;;;;;;6.87;2.10;;;;;;;;;;4962366;28;20232;-84
2024/01/01 09:12:32;;;;;;;4.90;1.90;;;;;;;;;;4973903;28;20237;-86
2024/01/01 09:14:58;;;;;;;4.97;1.83;;;;;;;;;;4978917;28;20230;-86
2024/01/01 09:17:25;;;;;;;4.53;2.10;;;;;;;;;;4963991;28;20238;-87
2024/01/01 09:19:53;;;;;;;5.77;2.10;;;;;;;;;;4963060;28;20683;-87
2024/01/01 09:22:19;;;;;;;9.17;2.30;;;;;;;;;;4978284;28;20217;-84
2024/01/01 09:24:47;;;;;;;5.17;2.03;;;;;;;;;;4981271;28;20225;-84
2024/01/01 09:27:14;;;;;;;5.47;2.67;;;;;;;;;;4971912;28;20226;-83
2024/01/01 09:29:42;;;;;;;7.10;2.63;;;;;;;;;;4977719;28;20228;-83
2024/01/01 09:32:08;;;;;;;6.43;2.40;;;;;;;;;;4980204;28;20226;-84
2024/01/01 09:34:36;;;;;;;5.27;2.50;;;;;;;;;;4977440;28;20300;-88
2024/01/01 09:37:06;;;;;;;6.80;2.20;;;;;;;;;;4974243;28;20285;-85
2024/01/01 09:39:32;;;;;;;7.13;2.30;;;;;;;;;;4962969;28;20326;-86
2024/01/01 09:42:01;;;;;;;6.33;2.53;;;;;;;;;;4991362;28;20733;-85
2024/01/01 09:44:26;;;;;;;4.97;2.10;;;;;;;;;;4996200;28;20228;-86
2024/01/01 09:46:57;;;;;;;5.87;2.37;;;;;;;;;;4977058;28;20221;-87
2024/01/01 09:49:24;;;;;;;8.20;2.67;;;;;;;;;;4963580;28;20253;-86
2024/01/01 09:51:51;;;;;;;3.87;1.93;;;;;;;;;;4981481;28;20221;-85
2024/01/01 09:54:17;;;;;;;5.10;2.20;;;;;;;;;;4976311;28;20241;-83
2024/01/01 09:56:44;;;;;;;4.60;2.00;;;;;;;;;;4965422;28;20241;-86
2024/01/01 09:59:12;;;;;;;6.43;2.37;;;;;;;;;;4994421;28;20291;-84
2024/01/01 10:01:38;;;;;;;11.73;2.40;;;;;;;;;;4991427;28;20225;-84
2024/01/01 10:04:07;;;;;;;7.00;2.10;;;;;;;;;;4962546;28;20264;-85
2024/01/01 10:06:36;;;;;;;4.83;2.30;;;;;;;;;;4994738;28;20270;-85
2024/01/01 10:09:08;;;;;;;4.83;2.23;;;;;;;;;;4961328;28;20232;-85
2024/01/01 10:11:34;;;;;;;3.37;1.90;;;;;;;;;;4966014;28;20233;-85
2024/01/01 10:14:12;;;;;;;5.13;2.37;;;;;;;;;;4982529;28;20773;-85
2024/01/01 10:16:41;;;;;;;6.30;2.63;;;;;;;;;;4973857;28;20229;-86
2024/01/01 10:19:09;;;;;;;4.10;2.00;;;;;;;;;;4972420;28;20221;-86
2024/01/01 10:21:35;;;;;;;6.70;2.10;;;;;;;;;;4963602;28;20249;-86
2024/01/01 10:24:21;;;;;;;12.37;3.27;;;;;;;;;;4993628;28;20230;-85
2024/01/01 10:26:47;;;;;;;6.90;2.70;;;;;;;;;;4996134;28;20221;-84
2024/01/01 10:29:13;;;;;;;5.77;2.63;;;;;;;;;;4960859;28;20691;-87
2024/01/01 10:31:48;;;;;;;6.50;2.43;;;;;;;;;;4985986;28;20226;-86
2024/01/01 10:34:19;;;;;;;9.80;2.93;;;;;;;;;;4960815;28;20244;-86
2024/01/01 10:36:45;;;;;;;5.93;2.53;;;;;;;;;;4962376;28;20228;-85
2024/01/01 10:39:12;;;;;;;7.83;2.40;;;;;;;;;;4978290;28;20218;-85
2024/01/01 10:41:42;;;;;;;7.63;2.60;;;;;;;;;;4977895;28;20271;-85
2024/01/01 10:44:10;;;;;;;6.23;2.47;;;;;;;;;;4978041;28;20226;-88
2024/01/01 10:46:56;;;;;;;6.80;2.50;;;;;;;;;;4978975;28;20279;-84
2024/01/01 10:49:25;;;;;;;7.17;2.53;;;;;;;;;;4960791;28;20270;-87
2024/01/01 10:52:14;;;;;;;7.10;2.47;;;;;;;;;;4980119;28;20221;-85
2024/01/01 10:55:11;;;;;;;5.57;2.67;;;;;;;;;;4969715;28;20328;-85
2024/01/01 10:58:10;;;;;;;11.73;2.80;;;;;;;;;;4983943;28;20236;-85
2024/01/01 11:00:41;;;;;;;6.80;2.30;;;;;;;;;;4957390;28;20726;-86
2024/01/01 11:03:22;;;;;;;6.30;2.43;;;;;;;;;;4960330;28;20225;-87
2024/01/01 11:05:50;;;;;;;9.17;2.40;;;;;;;;;;4960113;28;20226;-87
2024/01/01 11:08:26;;;;;;;6.30;2.50;;;;;;;;;;4977659;28;20299;-87
2024/01/01 11:10:55;;;;;;;7.07;2.60;;;;;;;;;;4977427;28;20584;-85
2024/01/01 11:13:28;;;;;;;5.27;2.57;;;;;;;;;;4961722;28;20224;-89
2024/01/01 11:16:13;;;;;;;5.80;2.33;;;;;;;;;;5008874;28;20758;-86
2024/01/01 11:18:39;;;;;;;8.03;2.20;;;;;;;;;;5001856;28;20237;-86
2024/01/01 11:21:07;;;;;;;7.57;2.20;;;;;;;;;;4980128;28;20232;-88
2024/01/01 11:23:46;;;;;;;5.90;2.43;;;;;;;;;;4977584;28;20233;-85
2024/01/01 11:26:26;;;;;;;7.43;2.40;;;;;;;;;;4957398;28;20289;-85
2024/01/01 11:28:52;;;;;;;5.03;2.43;;;;;;;;;;4993570;28;20229;-85
2024/01/01 11:31:18;;;;;;;3.23;2.20;;;;;;;;;;4960042;28;20291;-88
2024/01/01 11:33:57;;;;;;;6.50;2.60;;;;;;;;;;4980041;28;20233;-84
2024/01/01 11:36:22;;;;;;;8.43;2.73;;;;;;;;;;4945470;28;20268;-87
2024/01/01 11:38:48;;;;;;;4.27;2.17;;;;;;;;;;4946674;28;20221;-85
2024/01/01 11:41:24;;;;;;;5.93;2.40;;;;;;;;;;4960454;28;20215;-84
2024/01/01 11:43:52;;;;;;;6.83;2.80;;;;;;;;;;4957762;28;20221;-86
2024/01/01 11:46:24;;;;;;;5.43;2.40;;;;;;;;;;4959117;28;20233;-84
2024/01/01 11:48:57;;;;;;;6.40;2.13;;;;;;;;;;4978756;28;20221;-85
2024/01/01 11:51:25;;;;;;;4.83;2.33;;;;;;;;;;4991483;28;20227;-86
2024/01/01 11:54:27;;;;;;;5.97;2.53;;;;;;;;;;4958491;28;20509;-87
2024/01/01 11:56:59;;;;;;;4.37;2.27;;;;;;;;;;4981645;28;20240;-85
2024/01/01 11:59:24;;;;;;;5.10;2.13;;;;;;;;;;4961871;28;20611;-85
2024/01/01 12:01:52;;;;;;;8.43;2.80;;;;;;;;;;4946110;28;20222;-86
2024/01/01 12:04:18;;;;;;;4.87;2.47;;;;;;;;;;4970296;28;20305;-84
2024/01/01 12:06:50;;;;;;;7.60;2.50;;;;;;;;;;4961149;28;20237;-85
2024/01/01 12:09:18;;;;;;;4.13;1.93;;;;;;;;;;4990450;28;20277;-85
2024/01/01 12:11:46;;;;;;;6.47;2.50;;;;;;;;;;4979055;28;20228;-86
2024/01/01 12:14:12;;;;;;;7.40;2.70;;;;;;;;;;4961038;28;20305;-87
2024/01/01 12:16:37;;;;;;;3.70;2.13;;;;;;;;;;4974831;28;20217;-87
2024/01/01 12:19:04;;;;;;;5.07;2.23;;;;;;;;;;4961761;28;20706;-87
2024/01/01 12:21:40;;;;;;;5.10;2.30;;;;;;;;;;4970419;28;20240;-86
2024/01/01 12:24:14;;;;;;;5.83;2.77;;;;;;;;;;4999549;28;20225;-87
2024/01/01 12:26:43;;;;;;;4.60;2.23;;;;;;;;;;4982031;28;20237;-85
2024/01/01 12:29:12;;;;;;;5.37;2.37;;;;;;;;;;4982302;28;20226;-84
2024/01/01 12:31:44;;;;;;;7.03;2.50;;;;;;;;;;5003560;28;20800;-85
2024/01/01 12:34:17;;;;;;;4.80;1.73;;;;;;;;;;4964642;28;20304;-87
2024/01/01 12:36:46;;;;;;;4.43;2.23;;;;;;;;;;5006561;28;20229;-85
2024/01/01 12:39:15;;;;;;;6.63;3.60;;;;;;;;;;4964485;28;20225;-87
2024/01/01 12:41:45;;;;;;;6.27;2.10;;;;;;;;;;4951032;28;20241;-87
2024/01/01 12:44:13;;;;;;;8.93;2.30;;;;;;;;;;4980089;28;20241;-85
2024/01/01 12:46:42;;;;;;;7.87;3.57;;;;;;;;;;4975026;28;20221;-86
2024/01/01 12:49:07;;;;;;;4.97;2.60;;;;;;;;;;4968313;28;20221;-87
2024/01/01 12:51:35;;;;;;;4.63;3.40;;;;;;;;;;4965911;28;20613;-86
2024/01/01 12:54:01;;;;;;;5.93;3.17;;;;;;;;;;4978889;28;20230;-85
2024/01/01 12:56:27;;;;;;;4.23;2.30;;;;;;;;;;4979082;28;20218;-84
2024/01/01 12:58:56;;;;;;;4.67;2.10;;;;;;;;;;4959802;28;20648;-87
2024/01/01 13:01:24;;;;;;;5.10;2.27;;;;;;;;;;4962460;28;20313;-88
2024/01/01 13:03:50;;;;;;;3.90;2.27;;;;;;;;;;4950930;28;20272;-85
2024/01/01 13:06:18;;;;;;;5.60;2.20;;;;;;;;;;4991710;28;20278;-86
2024/01/01 13:08:45;;;;;;;2.77;1.90;;;;;;;;;;4980035;28;20837;-86
2024/01/01 13:11:13;;;;;;;9.43;2.70;;;;;;;;;;4976372;28;20215;-84
2024/01/01 13:13:39;;;;;;;5.90;2.20;;;;;;;;;;4979978;28;20233;-86
2024/01/01 13:16:07;;;;;;;7.13;2.57;;;;;;;;;;4978820;28;20229;-84
2024/01/01 13:18:35;;;;;;;3.33;1.90;;;;;;;;;;4976839;28;20222;-85
2024/01/01 13:21:04;;;;;;;4.43;2.30;;;;;;;;;;4981488;28;21026;-83
2024/01/01 13:23:32;;;;;;;4.43;2.60;;;;;;;;;;4977920;28;20234;-85
2024/01/01 13:26:03;;;;;;;6.17;2.37;;;;;;;;;;4978499;28;20276;-87
2024/01/01 13:28:31;;;;;;;6.30;2.37;;;;;;;;;;4979903;28;20236;-85
2024/01/01 13:30:58;;;;;;;5.87;2.30;;;;;;;;;;4980427;28;20272;-86
2024/01/01 13:33:23;;;;;;;3.90;2.50;;;;;;;;;;4979442;28;20233;-84
2024/01/01 13:35:51;;;;;;;5.00;2.43;;;;;;;;;;4959304;28;20293;-84
2024/01/01 13:38:17;;;;;;;6.57;2.53;;;;;;;;;;4978900;28;20225;-86
2024/01/01 13:40:42;;;;;;;3.90;2.23;;;;;;;;;;4963571;28;20230;-86
2024/01/01 13:43:11;;;;;;;6.47;2.10;;;;;;;;;;4953309;28;20236;-84
2024/01/01 13:45:42;;;;;;;3.00;1.83;;;;;;;;;;4996129;28;20240;-84
2024/01/01 13:48:11;;;;;;;5.07;2.27;;;;;;;;;;4977424;28;20308;-86
2024/01/01 13:50:44;;;;;;;2.67;2.10;;;;;;;;;;4980780;28;20425;-85
2024/01/01 13:53:10;;;;;;;3.93;2.50;;;;;;;;;;4960160;28;20367;-85
2024/01/01 13:55:38;;;;;;;6.50;2.53;;;;;;;;;;4978037;28;20692;-87
2024/01/01 13:58:06;;;;;;;4.43;2.20;;;;;;;;;;4957588;28;20234;-85
2024/01/01 14:00:37;;;;;;;4.30;2.20;;;;;;;;;;4962455;28;20232;-86
2024/01/01 14:03:03;;;;;;;3.60;2.40;;;;;;;;;;4976986;28;20229;-82
2024/01/01 14:05:28;;;;;;;3.83;2.10;;;;;;;;;;4976966;28;20232;-88
2024/01/01 14:07:57;;;;;;;3.20;1.90;;;;;;;;;;4977252;28;20648;-86
2024/01/01 14:10:22;;;;;;;8.10;5.27;;;;;;;;;;4977095;28;20228;-85
2024/01/01 14:12:52;;;;;;;25.40;16.80;;;;;;;;;;4973127;28;20289;-86
2024/01/01 14:15:21;;;;;;;4.70;2.63;;;;;;;;;;4969982;28;20272;-85
2024/01/01 14:17:46;;;;;;;5.17;2.17;;;;;;;;;;4965239;28;20303;-85
2024/01/01 14:20:13;;;;;;;4.10;2.13;;;;;;;;;;4951657;28;20707;-86
2024/01/01 14:22:41;;;;;;;3.83;2.37;;;;;;;;;;4982842;28;20222;-85
2024/01/01 14:25:09;;;;;;;5.40;2.50;;;;;;;;;;4988951;28;20320;-83
2024/01/01 14:27:35;;;;;;;3.77;2.17;;;;;;;;;;4964471;28;20284;-82
2024/01/01 14:30:05;;;;;;;5.63;2.43;;;;;;;;;;4975587;28;20716;-85
2024/01/01 14:32:30;;;;;;;2.90;2.03;;;;;;;;;;5000278;28;20273;-86
2024/01/01 14:34:58;;;;;;;3.70;2.30;;;;;;;;;;4990777;28;20210;-84
2024/01/01 14:37:24;;;;;;;3.90;2.17;;;;;;;;;;4970011;28;20241;-85
2024/01/01 14:39:51;;;;;;;5.57;2.27;;;;;;;;;;4988094;28;20225;-86
2024/01/01 14:42:19;;;;;;;5.17;3.03;;;;;;;;;;4988722;28;20228;-83
2024/01/01 14:44:47;;;;;;;5.40;2.17;;;;;;;;;;4975003;28;20226;-84
2024/01/01 14:47:13;;;;;;;4.13;2.00;;;;;;;;;;4987202;28;20310;-84
2024/01/01 14:49:42;;;;;;;2.67;2.00;;;;;;;;;;4988525;28;20229;-84
2024/01/01 14:52:08;;;;;;;5.13;2.23;;;;;;;;;;4987862;28;20316;-85